Terminal Aerodrome Forecast
Issued by NWS St Louis, MO

Home | Current Version | Previous Version | Text Only | Print | Product List | Glossary On
Versions: 1 2 3 4 5 6 7 8 9 10 11 12 13 14 15 16 17 18 19 20
000
FTUS43 KLSX 260700 AAA
TAFCOU
TAF AMD
KCOU 260752Z 2608/2706 01022G30KT 3SM -SN SCT008 OVC010
     FM261000 35015G25KT P6SM OVC015
     FM261900 34012G20KT P6SM BKN020
     FM270200 35010KT P6SM SCT020=

USA.gov is the U.S. government's official web portal to all federal, state and local government web resources and services.